createdAt,value
2018-07-20T00:00:52.922Z,990.39
2018-07-20T00:01:53.075Z,990.38
2018-07-20T00:02:53.228Z,990.37
2018-07-20T00:03:53.382Z,990.36
2018-07-20T00:04:53.536Z,990.36
2018-07-20T00:05:53.689Z,990.39
2018-07-20T00:06:53.843Z,990.35
2018-07-20T00:07:53.998Z,990.36
2018-07-20T00:08:54.150Z,990.37
2018-07-20T00:09:54.304Z,990.39
2018-07-20T00:10:54.456Z,990.38
2018-07-20T00:11:54.611Z,990.41
2018-07-20T00:12:54.763Z,990.41
2018-07-20T00:13:54.918Z,990.38
2018-07-20T00:14:55.072Z,990.37
2018-07-20T00:15:55.225Z,990.37
2018-07-20T00:16:55.383Z,990.40
2018-07-20T00:17:55.533Z,990.37
2018-07-20T00:18:55.696Z,990.34
2018-07-20T00:19:55.842Z,990.39
2018-07-20T00:20:55.995Z,990.35
2018-07-20T00:21:56.147Z,990.39
2018-07-20T00:22:56.302Z,990.36
2018-07-20T00:23:56.454Z,990.35
2018-07-20T00:24:56.608Z,990.39
2018-07-20T00:25:56.764Z,990.39
2018-07-20T00:26:56.918Z,990.39
2018-07-20T00:27:57.071Z,990.36
2018-07-20T00:28:57.224Z,990.37
2018-07-20T00:29:57.380Z,990.32
2018-07-20T00:30:57.531Z,990.36
2018-07-20T00:31:57.692Z,990.30
2018-07-20T00:32:57.840Z,990.30
2018-07-20T00:33:57.993Z,990.32
2018-07-20T00:34:58.146Z,990.27
2018-07-20T00:35:58.301Z,990.31
2018-07-20T00:36:58.452Z,990.28
2018-07-20T00:37:58.607Z,990.26
2018-07-20T00:38:58.759Z,990.25
2018-07-20T00:39:58.912Z,990.25
2018-07-20T00:40:59.066Z,990.26
2018-07-20T00:41:59.225Z,990.22
2018-07-20T00:42:59.373Z,990.25
2018-07-20T00:43:59.527Z,990.25
2018-07-20T00:44:59.685Z,990.21
2018-07-20T00:45:59.833Z,990.22
2018-07-20T00:46:59.986Z,990.21
2018-07-20T00:48:00.138Z,990.21
2018-07-20T00:49:00.290Z,990.18
2018-07-20T00:50:00.448Z,990.15
2018-07-20T00:51:00.599Z,990.18
2018-07-20T00:52:00.759Z,990.17
2018-07-20T00:53:00.907Z,990.16
2018-07-20T00:54:01.060Z,990.16
2018-07-20T00:55:01.213Z,990.13
2018-07-20T00:56:01.364Z,990.16
2018-07-20T00:57:01.519Z,990.15
2018-07-20T00:58:01.676Z,990.14
2018-07-20T00:59:01.828Z,990.11
2018-07-20T01:00:01.984Z,990.08
2018-07-20T01:01:02.134Z,990.08
2018-07-20T01:02:02.289Z,990.08
2018-07-20T01:03:02.441Z,990.03
2018-07-20T01:04:02.595Z,990.04
2018-07-20T01:05:02.750Z,990.04
2018-07-20T01:06:02.902Z,990.01
2018-07-20T01:07:03.058Z,990.06
2018-07-20T01:08:03.212Z,990.05
2018-07-20T01:09:03.366Z,990.03
2018-07-20T01:10:03.523Z,990.06
2018-07-20T01:11:03.673Z,990.02
2018-07-20T01:12:03.826Z,990.01
2018-07-20T01:13:03.979Z,990.01
2018-07-20T01:14:04.134Z,990.06
2018-07-20T01:15:04.288Z,990.04
2018-07-20T01:16:04.443Z,990.01
2018-07-20T01:17:04.594Z,989.99
2018-07-20T01:18:04.747Z,989.97
2018-07-20T01:19:04.899Z,989.97
2018-07-20T01:20:05.050Z,989.99
2018-07-20T01:21:05.205Z,989.98
2018-07-20T01:22:05.357Z,989.98
2018-07-20T01:23:05.510Z,989.99
2018-07-20T01:24:05.662Z,990.03
2018-07-20T01:25:05.821Z,989.98
2018-07-20T01:26:05.969Z,989.98
2018-07-20T01:27:06.122Z,989.97
2018-07-20T01:28:06.276Z,989.99
2018-07-20T01:29:06.427Z,989.97
2018-07-20T01:30:06.581Z,989.99
2018-07-20T01:31:06.735Z,990.00
2018-07-20T01:32:06.885Z,989.99
2018-07-20T01:33:07.043Z,989.95
2018-07-20T01:34:07.191Z,990.00
2018-07-20T01:35:07.343Z,989.98
2018-07-20T01:36:07.498Z,990.00
2018-07-20T01:37:07.651Z,989.95
2018-07-20T01:38:07.806Z,989.97
2018-07-20T01:39:07.959Z,989.96
2018-07-20T01:40:08.111Z,989.97
2018-07-20T01:41:08.265Z,989.98
2018-07-20T01:42:08.417Z,989.97
2018-07-20T01:43:08.569Z,989.94
2018-07-20T01:44:08.721Z,989.94
2018-07-20T01:45:08.875Z,989.94
2018-07-20T01:46:09.027Z,989.93
2018-07-20T01:47:09.180Z,989.93
2018-07-20T01:48:09.334Z,989.94
2018-07-20T01:49:09.486Z,989.91
2018-07-20T01:50:09.637Z,989.88
2018-07-20T01:51:09.790Z,989.86
2018-07-20T01:52:09.945Z,989.87
2018-07-20T01:53:10.142Z,989.85
2018-07-20T01:54:10.248Z,989.85
2018-07-20T01:55:10.412Z,989.82
2018-07-20T01:56:10.571Z,989.84
2018-07-20T01:57:10.724Z,989.85
2018-07-20T01:58:10.879Z,989.80
2018-07-20T01:59:11.029Z,989.84
2018-07-20T02:00:11.184Z,989.82
2018-07-20T02:01:11.341Z,989.87
2018-07-20T02:02:11.492Z,989.85
2018-07-20T02:03:11.643Z,989.88
2018-07-20T02:04:11.797Z,989.82
2018-07-20T02:05:11.953Z,989.81
2018-07-20T02:06:12.103Z,989.83
2018-07-20T02:07:12.254Z,989.82
2018-07-20T02:08:12.406Z,989.84
2018-07-20T02:09:12.561Z,989.82
2018-07-20T02:10:12.714Z,989.80
2018-07-20T02:11:12.868Z,989.83
2018-07-20T02:12:13.018Z,989.85
2018-07-20T02:13:13.170Z,989.83
2018-07-20T02:14:13.322Z,989.83
2018-07-20T02:15:13.474Z,989.83
2018-07-20T02:16:13.628Z,989.84
2018-07-20T02:17:13.779Z,989.80
2018-07-20T02:18:13.930Z,989.76
2018-07-20T02:19:14.082Z,989.80
2018-07-20T02:20:14.236Z,989.81
2018-07-20T02:21:14.394Z,989.76
2018-07-20T02:22:14.545Z,989.79
2018-07-20T02:23:14.699Z,989.75
2018-07-20T02:24:14.847Z,989.77
2018-07-20T02:25:15.001Z,989.77
2018-07-20T02:26:15.153Z,989.79
2018-07-20T02:27:15.305Z,989.77
2018-07-20T02:28:15.456Z,989.80
2018-07-20T02:29:15.610Z,989.78
2018-07-20T02:30:15.761Z,989.80
2018-07-20T02:31:15.915Z,989.79
2018-07-20T02:32:16.068Z,989.75
2018-07-20T02:33:16.219Z,989.76
2018-07-20T02:34:16.372Z,989.72
2018-07-20T02:35:16.524Z,989.74
2018-07-20T02:36:16.670Z,989.71
2018-07-20T02:37:16.836Z,989.75
2018-07-20T02:38:16.993Z,989.71
2018-07-20T02:39:17.142Z,989.71
2018-07-20T02:40:17.294Z,989.75
2018-07-20T02:41:17.446Z,989.70
2018-07-20T02:42:17.604Z,989.73
2018-07-20T02:43:17.752Z,989.70
2018-07-20T02:44:17.901Z,989.69
2018-07-20T02:45:18.056Z,989.69
2018-07-20T02:46:18.208Z,989.66
2018-07-20T02:47:18.362Z,989.66
2018-07-20T02:48:18.515Z,989.67
2018-07-20T02:49:18.668Z,989.68
2018-07-20T02:50:18.824Z,989.68
2018-07-20T02:51:18.974Z,989.71
2018-07-20T02:52:19.125Z,989.74
2018-07-20T02:53:19.280Z,989.69
2018-07-20T02:54:19.433Z,989.69
2018-07-20T02:55:19.582Z,989.69
2018-07-20T02:56:19.734Z,989.69
2018-07-20T02:57:19.891Z,989.69
2018-07-20T02:58:20.044Z,989.70
2018-07-20T02:59:20.197Z,989.65
2018-07-20T03:00:20.349Z,989.64
2018-07-20T03:01:20.498Z,989.65
2018-07-20T03:02:20.654Z,989.66
2018-07-20T03:03:20.805Z,989.67
2018-07-20T03:04:20.968Z,989.64
2018-07-20T03:05:21.112Z,989.65
2018-07-20T03:06:21.265Z,989.62
2018-07-20T03:07:21.413Z,989.63
2018-07-20T03:08:21.567Z,989.62
2018-07-20T03:09:21.720Z,989.62
2018-07-20T03:10:21.872Z,989.63
2018-07-20T03:11:22.023Z,989.64
2018-07-20T03:12:22.186Z,989.59
2018-07-20T03:13:22.328Z,989.62
2018-07-20T03:14:22.492Z,989.66
2018-07-20T03:15:22.632Z,989.67
2018-07-20T03:16:22.783Z,989.66
2018-07-20T03:17:22.937Z,989.64
2018-07-20T03:18:23.088Z,989.63
2018-07-20T03:19:23.240Z,989.62
2018-07-20T03:20:23.393Z,989.65
2018-07-20T03:21:23.548Z,989.60
2018-07-20T03:22:23.729Z,989.61
2018-07-20T03:23:23.882Z,989.61
2018-07-20T03:24:24.034Z,989.57
2018-07-20T03:25:24.187Z,989.61
2018-07-20T03:26:24.340Z,989.61
2018-07-20T03:27:24.492Z,989.61
2018-07-20T03:28:24.656Z,989.58
2018-07-20T03:29:24.807Z,989.60
2018-07-20T03:30:24.961Z,989.58
2018-07-20T03:31:25.119Z,989.60
2018-07-20T03:32:25.269Z,989.62
2018-07-20T03:33:25.420Z,989.57
2018-07-20T03:34:25.571Z,989.59
2018-07-20T03:35:25.724Z,989.56
2018-07-20T03:36:25.879Z,989.58
2018-07-20T03:37:26.031Z,989.54
2018-07-20T03:38:26.185Z,989.55
2018-07-20T03:39:26.337Z,989.57
2018-07-20T03:40:26.487Z,989.55
2018-07-20T03:41:26.643Z,989.56
2018-07-20T03:42:26.790Z,989.55
2018-07-20T03:43:26.949Z,989.57
2018-07-20T03:44:27.095Z,989.58
2018-07-20T03:45:27.251Z,989.52
2018-07-20T03:46:27.402Z,989.52
2018-07-20T03:47:27.555Z,989.50
2018-07-20T03:48:27.709Z,989.51
2018-07-20T03:49:27.861Z,989.51
2018-07-20T03:50:28.012Z,989.50
2018-07-20T03:51:28.164Z,989.52
2018-07-20T03:52:28.315Z,989.54
2018-07-20T03:53:28.468Z,989.51
2018-07-20T03:54:28.620Z,989.54
2018-07-20T03:55:28.773Z,989.53
2018-07-20T03:56:28.926Z,989.51
2018-07-20T03:57:29.078Z,989.49
2018-07-20T03:58:29.232Z,989.53
2018-07-20T03:59:29.385Z,989.49
2018-07-20T04:00:29.536Z,989.48
2018-07-20T04:01:29.690Z,989.48
2018-07-20T04:02:29.933Z,989.48
2018-07-20T04:03:29.996Z,989.49
2018-07-20T04:04:30.146Z,989.48
2018-07-20T04:05:30.298Z,989.46
2018-07-20T04:06:30.452Z,989.47
2018-07-20T04:07:30.602Z,989.45
2018-07-20T04:08:30.756Z,989.48
2018-07-20T04:09:30.909Z,989.50
2018-07-20T04:10:31.060Z,989.49
2018-07-20T04:11:31.213Z,989.50
2018-07-20T04:12:31.365Z,989.50
2018-07-20T04:13:31.519Z,989.47
2018-07-20T04:14:31.670Z,989.46
2018-07-20T04:15:31.823Z,989.46
2018-07-20T04:16:31.976Z,989.49
2018-07-20T04:17:32.128Z,989.47
2018-07-20T04:18:32.281Z,989.45
2018-07-20T04:19:32.433Z,989.41
2018-07-20T04:20:32.586Z,989.41
2018-07-20T04:21:32.737Z,989.41
2018-07-20T04:22:32.891Z,989.41
2018-07-20T04:23:33.046Z,989.40
2018-07-20T04:24:33.201Z,989.37
2018-07-20T04:25:33.351Z,989.38
2018-07-20T04:26:33.505Z,989.36
2018-07-20T04:27:33.660Z,989.38
2018-07-20T04:28:33.813Z,989.40
2018-07-20T04:29:33.967Z,989.35
2018-07-20T04:30:34.121Z,989.39
2018-07-20T04:31:34.275Z,989.38
2018-07-20T04:32:34.424Z,989.40
2018-07-20T04:33:34.577Z,989.36
2018-07-20T04:34:34.732Z,989.38
2018-07-20T04:35:34.884Z,989.35
2018-07-20T04:36:35.038Z,989.37
2018-07-20T04:37:35.190Z,989.35
2018-07-20T04:38:35.343Z,989.38
2018-07-20T04:39:35.495Z,989.41
2018-07-20T04:40:35.647Z,989.36
2018-07-20T04:41:35.800Z,989.36
2018-07-20T04:42:35.953Z,989.37
2018-07-20T04:43:36.105Z,989.39
2018-07-20T04:44:36.258Z,989.35
2018-07-20T04:45:36.409Z,989.39
2018-07-20T04:46:36.563Z,989.41
2018-07-20T04:47:36.720Z,989.44
2018-07-20T04:48:36.870Z,989.45
2018-07-20T04:49:37.022Z,989.45
2018-07-20T04:50:37.176Z,989.40
2018-07-20T04:51:37.328Z,989.40
2018-07-20T04:52:37.481Z,989.40
2018-07-20T04:53:37.633Z,989.36
2018-07-20T04:54:37.786Z,989.37
2018-07-20T04:55:37.941Z,989.39
2018-07-20T04:56:38.095Z,989.37
2018-07-20T04:57:38.245Z,989.39
2018-07-20T04:58:38.434Z,989.37
2018-07-20T04:59:38.553Z,989.37
2018-07-20T05:00:38.709Z,989.39
2018-07-20T05:01:38.860Z,989.38
2018-07-20T05:02:39.013Z,989.37
2018-07-20T05:03:39.212Z,989.33
2018-07-20T05:04:39.321Z,989.40
2018-07-20T05:05:39.476Z,989.35
2018-07-20T05:06:39.629Z,989.34
2018-07-20T05:07:39.782Z,989.37
2018-07-20T05:08:39.936Z,989.37
2018-07-20T05:09:40.090Z,989.34
2018-07-20T05:10:40.245Z,989.34
2018-07-20T05:11:40.398Z,989.33
2018-07-20T05:12:40.553Z,989.31
2018-07-20T05:13:40.704Z,989.33
2018-07-20T05:14:40.856Z,989.29
2018-07-20T05:15:41.010Z,989.33
2018-07-20T05:16:41.161Z,989.30
2018-07-20T05:17:41.315Z,989.31
2018-07-20T05:18:41.468Z,989.31
2018-07-20T05:19:41.622Z,989.31
2018-07-20T05:20:41.779Z,989.32
2018-07-20T05:21:41.929Z,989.29
2018-07-20T05:22:42.082Z,989.33
2018-07-20T05:23:42.237Z,989.28
2018-07-20T05:24:42.393Z,989.30
2018-07-20T05:25:42.540Z,989.29
2018-07-20T05:26:42.695Z,989.27
2018-07-20T05:27:42.850Z,989.28
2018-07-20T05:28:43.001Z,989.25
2018-07-20T05:29:43.155Z,989.22
2018-07-20T05:30:43.309Z,989.23
2018-07-20T05:31:43.461Z,989.24
2018-07-20T05:32:43.626Z,989.23
2018-07-20T05:33:43.825Z,989.23
2018-07-20T05:34:43.924Z,989.20
2018-07-20T05:35:44.078Z,989.18
2018-07-20T05:36:44.231Z,989.17
2018-07-20T05:37:44.386Z,989.20
2018-07-20T05:38:44.539Z,989.22
2018-07-20T05:39:44.694Z,989.21
2018-07-20T05:40:44.847Z,989.18
2018-07-20T05:41:45.004Z,989.21
2018-07-20T05:42:45.156Z,989.23
2018-07-20T05:43:45.311Z,989.23
2018-07-20T05:44:45.464Z,989.19
2018-07-20T05:45:45.618Z,989.23
2018-07-20T05:46:45.772Z,989.19
2018-07-20T05:47:45.926Z,989.17
2018-07-20T05:48:46.085Z,989.19
2018-07-20T05:49:46.236Z,989.21
2018-07-20T05:50:46.388Z,989.22
2018-07-20T05:51:46.543Z,989.21
2018-07-20T05:52:46.699Z,989.25
2018-07-20T05:53:46.857Z,989.20
2018-07-20T05:54:47.013Z,989.18
2018-07-20T05:55:47.165Z,989.16
2018-07-20T05:56:47.317Z,989.15
2018-07-20T05:57:47.475Z,989.12
2018-07-20T05:58:47.626Z,989.12
2018-07-20T05:59:47.782Z,989.16
2018-07-20T06:00:47.936Z,989.14
2018-07-20T06:01:48.093Z,989.14
2018-07-20T06:02:48.246Z,989.17
2018-07-20T06:03:48.404Z,989.12
2018-07-20T06:04:48.558Z,989.16
2018-07-20T06:05:48.712Z,989.15
2018-07-20T06:06:48.867Z,989.16
2018-07-20T06:07:49.022Z,989.16
2018-07-20T06:08:49.176Z,989.13
2018-07-20T06:09:49.329Z,989.15
2018-07-20T06:10:49.484Z,989.14
2018-07-20T06:11:49.639Z,989.15
2018-07-20T06:12:49.796Z,989.16
2018-07-20T06:13:49.950Z,989.19
2018-07-20T06:14:50.149Z,989.11
2018-07-20T06:15:50.260Z,989.09
2018-07-20T06:16:50.418Z,989.10
2018-07-20T06:17:50.570Z,989.09
2018-07-20T06:18:50.777Z,989.10
2018-07-20T06:19:50.896Z,989.10
2018-07-20T06:20:51.033Z,989.09
2018-07-20T06:21:51.191Z,989.06
2018-07-20T06:22:51.346Z,989.06
2018-07-20T06:23:51.597Z,989.07
2018-07-20T06:24:51.657Z,989.06
2018-07-20T06:25:51.812Z,989.10
2018-07-20T06:26:51.967Z,989.09
2018-07-20T06:27:52.124Z,989.08
2018-07-20T06:28:52.278Z,989.09
2018-07-20T06:29:52.432Z,989.11
2018-07-20T06:30:52.587Z,989.12
2018-07-20T06:31:52.744Z,989.12
2018-07-20T06:32:52.898Z,989.09
2018-07-20T06:33:53.052Z,989.03
2018-07-20T06:34:53.210Z,989.05
2018-07-20T06:35:53.365Z,989.09
2018-07-20T06:36:53.522Z,989.05
2018-07-20T06:37:53.678Z,989.07
2018-07-20T06:38:54.448Z,989.07
2018-07-20T06:39:53.995Z,989.08
2018-07-20T06:40:54.150Z,989.07
2018-07-20T06:41:54.306Z,989.06
2018-07-20T06:42:54.462Z,989.07
2018-07-20T06:43:54.619Z,989.07
2018-07-20T06:44:54.777Z,989.05
2018-07-20T06:45:54.933Z,989.07
2018-07-20T06:46:55.089Z,989.05
2018-07-20T06:47:55.243Z,989.08
2018-07-20T06:48:55.402Z,989.06
2018-07-20T06:49:55.614Z,989.05
2018-07-20T06:50:55.733Z,989.05
2018-07-20T06:51:55.872Z,989.03
2018-07-20T06:52:56.028Z,989.05
2018-07-20T06:53:56.185Z,989.03
2018-07-20T06:54:56.342Z,989.02
2018-07-20T06:55:56.515Z,989.01
2018-07-20T06:56:56.657Z,989.00
2018-07-20T06:57:56.810Z,988.98
2018-07-20T06:58:56.968Z,989.02
2018-07-20T06:59:57.126Z,989.03
2018-07-20T07:00:57.281Z,989.02
2018-07-20T07:01:57.438Z,989.03
2018-07-20T07:02:57.600Z,989.04
2018-07-20T07:03:57.754Z,989.01
2018-07-20T07:04:57.907Z,989.03
2018-07-20T07:05:58.064Z,989.02
2018-07-20T07:06:58.225Z,989.03
2018-07-20T07:07:58.381Z,988.99
2018-07-20T07:08:58.540Z,989.03
2018-07-20T07:09:58.694Z,989.03
2018-07-20T07:10:58.851Z,989.03
2018-07-20T07:11:59.002Z,988.99
2018-07-20T07:12:59.175Z,988.99
2018-07-20T07:13:59.334Z,988.97
2018-07-20T07:14:59.542Z,988.95
2018-07-20T07:15:59.650Z,988.96
2018-07-20T07:16:59.808Z,988.98
2018-07-20T07:17:59.964Z,989.00
2018-07-20T07:19:00.122Z,988.98
2018-07-20T07:20:00.280Z,988.99
2018-07-20T07:21:00.435Z,989.01
2018-07-20T07:22:00.595Z,988.99
2018-07-20T07:23:00.750Z,988.97
2018-07-20T07:24:00.906Z,989.00
2018-07-20T07:25:01.067Z,988.99
2018-07-20T07:26:01.276Z,988.97
2018-07-20T07:27:01.377Z,989.05
2018-07-20T07:28:01.537Z,989.03
2018-07-20T07:29:01.733Z,989.03
2018-07-20T07:30:01.852Z,989.03
2018-07-20T07:31:02.007Z,988.98
2018-07-20T07:32:02.165Z,989.00
2018-07-20T07:33:02.325Z,989.02
2018-07-20T07:34:02.482Z,989.02
2018-07-20T07:35:02.640Z,989.00
2018-07-20T07:36:02.798Z,988.99
2018-07-20T07:37:02.957Z,988.97
2018-07-20T07:38:03.117Z,988.98
2018-07-20T07:39:03.274Z,989.03
2018-07-20T07:40:03.432Z,989.04
2018-07-20T07:41:03.588Z,988.99
2018-07-20T07:42:03.797Z,989.01
2018-07-20T07:43:03.903Z,988.99
2018-07-20T07:44:04.064Z,988.98
2018-07-20T07:45:04.226Z,988.95
2018-07-20T07:46:04.381Z,988.97
2018-07-20T07:47:04.541Z,988.99
2018-07-20T07:48:04.699Z,989.01
2018-07-20T07:49:04.858Z,989.07
2018-07-20T07:50:05.016Z,989.04
2018-07-20T07:51:05.179Z,989.05
2018-07-20T07:52:05.334Z,989.06
2018-07-20T07:53:05.493Z,989.01
2018-07-20T07:54:05.650Z,989.05
2018-07-20T07:55:05.812Z,989.05
2018-07-20T07:56:05.977Z,989.03
2018-07-20T07:57:06.135Z,989.02
2018-07-20T07:58:06.292Z,989.04
2018-07-20T07:59:06.450Z,989.05
2018-07-20T08:00:06.609Z,989.01
2018-07-20T08:01:06.767Z,989.01
2018-07-20T08:02:06.926Z,989.00
2018-07-20T08:03:07.114Z,989.00
2018-07-20T08:04:07.243Z,988.97
2018-07-20T08:05:07.403Z,988.91
2018-07-20T08:06:07.564Z,988.91
2018-07-20T08:07:07.720Z,988.93
2018-07-20T08:08:07.884Z,988.90
2018-07-20T08:09:08.042Z,988.92
2018-07-20T08:10:08.395Z,988.90
2018-07-20T08:11:08.363Z,988.92
2018-07-20T08:12:08.524Z,988.94
2018-07-20T08:13:08.683Z,988.88
2018-07-20T08:14:08.842Z,988.90
2018-07-20T08:15:09.004Z,988.85
2018-07-20T08:16:09.163Z,988.83
2018-07-20T08:17:09.324Z,988.85
2018-07-20T08:18:09.485Z,988.85
2018-07-20T08:19:09.643Z,988.86
2018-07-20T08:20:09.802Z,988.84
2018-07-20T08:21:09.963Z,988.86
2018-07-20T08:22:10.122Z,988.82
2018-07-20T08:23:10.282Z,988.85
2018-07-20T08:24:10.443Z,988.81
2018-07-20T08:25:10.604Z,988.81
2018-07-20T08:26:10.763Z,988.78
2018-07-20T08:27:10.922Z,988.84
2018-07-20T08:28:11.083Z,988.80
2018-07-20T08:29:11.244Z,988.82
2018-07-20T08:30:11.404Z,988.77
2018-07-20T08:31:11.567Z,988.81
2018-07-20T08:32:11.727Z,988.81
2018-07-20T08:33:11.888Z,988.83
2018-07-20T08:34:12.051Z,988.79
2018-07-20T08:35:12.210Z,988.78
2018-07-20T08:36:12.372Z,988.77
2018-07-20T08:37:12.531Z,988.78
2018-07-20T08:38:12.699Z,988.75
2018-07-20T08:39:12.851Z,988.78
2018-07-20T08:40:13.014Z,988.75
2018-07-20T08:41:13.212Z,988.75
2018-07-20T08:42:13.334Z,988.71
2018-07-20T08:43:13.495Z,988.74
2018-07-20T08:44:13.654Z,988.74
2018-07-20T08:45:13.819Z,988.69
2018-07-20T08:46:13.976Z,988.66
2018-07-20T08:47:14.139Z,988.67
2018-07-20T08:48:14.300Z,988.67
2018-07-20T08:49:14.460Z,988.68
2018-07-20T08:50:14.622Z,988.67
2018-07-20T08:51:14.782Z,988.68
2018-07-20T08:52:14.944Z,988.67
2018-07-20T08:53:15.104Z,988.71
2018-07-20T08:54:15.266Z,988.70
2018-07-20T08:55:15.424Z,988.74
2018-07-20T08:56:15.592Z,988.67
2018-07-20T08:57:15.747Z,988.67
2018-07-20T08:58:15.911Z,988.65
2018-07-20T08:59:16.069Z,988.63
2018-07-20T09:00:16.232Z,988.63
2018-07-20T09:01:16.393Z,988.61
2018-07-20T09:02:16.553Z,988.65
2018-07-20T09:03:16.714Z,988.61
2018-07-20T09:04:16.876Z,988.63
2018-07-20T09:05:17.038Z,988.62
2018-07-20T09:06:17.199Z,988.60
2018-07-20T09:07:17.363Z,988.63
2018-07-20T09:08:17.521Z,988.61
2018-07-20T09:09:17.680Z,988.59
2018-07-20T09:10:17.843Z,988.59
2018-07-20T09:11:18.011Z,988.60
2018-07-20T09:12:18.168Z,988.58
2018-07-20T09:13:18.328Z,988.56
2018-07-20T09:14:18.492Z,988.52
2018-07-20T09:15:18.653Z,988.51
2018-07-20T09:16:18.815Z,988.49
2018-07-20T09:17:18.982Z,988.49
2018-07-20T09:18:19.142Z,988.45
2018-07-20T09:19:19.302Z,988.47
2018-07-20T09:20:19.464Z,988.49
2018-07-20T09:21:19.626Z,988.50
2018-07-20T09:22:19.787Z,988.46
2018-07-20T09:23:19.949Z,988.50
2018-07-20T09:24:20.110Z,988.50
2018-07-20T09:25:20.270Z,988.49
2018-07-20T09:26:20.432Z,988.50
2018-07-20T09:27:20.595Z,988.49
2018-07-20T09:28:20.770Z,988.53
2018-07-20T09:29:20.919Z,988.50
2018-07-20T09:30:21.079Z,988.51
2018-07-20T09:31:21.246Z,988.53
2018-07-20T09:32:21.404Z,988.53
2018-07-20T09:33:21.567Z,988.48
2018-07-20T09:34:21.732Z,988.48
2018-07-20T09:35:21.919Z,988.46
2018-07-20T09:36:22.052Z,988.43
2018-07-20T09:37:22.217Z,988.39
2018-07-20T09:38:22.375Z,988.41
2018-07-20T09:39:22.540Z,988.42
2018-07-20T09:40:22.702Z,988.41
2018-07-20T09:41:22.864Z,988.39
2018-07-20T09:42:23.025Z,988.42
2018-07-20T09:43:23.188Z,988.36
2018-07-20T09:44:23.378Z,988.38
2018-07-20T09:45:23.513Z,988.35
2018-07-20T09:46:23.678Z,988.34
2018-07-20T09:47:23.840Z,988.30
2018-07-20T09:48:24.028Z,988.31
2018-07-20T09:49:24.188Z,988.35
2018-07-20T09:50:24.350Z,988.32
2018-07-20T09:51:24.520Z,988.30
2018-07-20T09:52:24.684Z,988.34
2018-07-20T09:53:24.838Z,988.34
2018-07-20T09:54:25.002Z,988.36
2018-07-20T09:55:25.163Z,988.33
2018-07-20T09:56:25.327Z,988.25
2018-07-20T09:57:25.496Z,988.30
2018-07-20T09:58:25.682Z,988.28
2018-07-20T09:59:25.863Z,988.25
2018-07-20T10:00:26.032Z,988.27
2018-07-20T10:01:26.146Z,988.29
2018-07-20T10:02:26.310Z,988.25
2018-07-20T10:03:26.472Z,988.23
2018-07-20T10:04:26.636Z,988.23
2018-07-20T10:05:26.800Z,988.19
2018-07-20T10:06:26.967Z,988.20
2018-07-20T10:07:27.128Z,988.19
2018-07-20T10:08:27.292Z,988.19
2018-07-20T10:09:27.453Z,988.19
2018-07-20T10:10:27.618Z,988.13
2018-07-20T10:11:27.783Z,988.24
2018-07-20T10:12:27.944Z,988.16
2018-07-20T10:13:28.107Z,988.17
2018-07-20T10:14:28.269Z,988.15
2018-07-20T10:15:28.433Z,988.16
2018-07-20T10:16:28.596Z,988.19
2018-07-20T10:17:28.756Z,988.16
2018-07-20T10:18:28.920Z,988.16
2018-07-20T10:19:29.083Z,988.12
2018-07-20T10:20:29.248Z,988.19
2018-07-20T10:21:29.410Z,988.20
2018-07-20T10:22:29.574Z,988.19
2018-07-20T10:23:29.738Z,988.16
2018-07-20T10:24:29.904Z,988.15
2018-07-20T10:25:30.072Z,988.13
2018-07-20T10:26:30.226Z,988.12
2018-07-20T10:27:30.393Z,988.07
2018-07-20T10:28:30.556Z,988.00
2018-07-20T10:29:30.720Z,988.05
2018-07-20T10:30:30.881Z,988.04
2018-07-20T10:31:31.045Z,988.04
2018-07-20T10:32:31.211Z,987.99
2018-07-20T10:33:31.372Z,987.99
2018-07-20T10:34:31.536Z,987.99
2018-07-20T10:35:31.697Z,987.95
2018-07-20T10:36:31.865Z,987.98
2018-07-20T10:37:32.026Z,987.94
2018-07-20T10:38:32.192Z,987.95
2018-07-20T10:39:32.343Z,987.99
2018-07-20T10:40:32.501Z,988.00
2018-07-20T10:41:32.667Z,987.95
2018-07-20T10:42:32.831Z,987.91
2018-07-20T10:43:32.992Z,987.92
2018-07-20T10:44:33.155Z,987.92
2018-07-20T10:45:33.322Z,987.89
2018-07-20T10:46:33.481Z,987.87
2018-07-20T10:47:33.655Z,987.86
2018-07-20T10:48:33.815Z,987.90
2018-07-20T10:49:33.980Z,987.90
2018-07-20T10:50:34.139Z,987.89
2018-07-20T10:51:34.302Z,987.86
2018-07-20T10:52:34.467Z,987.89
2018-07-20T10:53:34.630Z,987.88
2018-07-20T10:54:34.795Z,987.86
2018-07-20T10:55:34.960Z,987.91
2018-07-20T10:56:35.122Z,987.93
2018-07-20T10:57:35.286Z,987.89
2018-07-20T10:58:35.450Z,987.87
2018-07-20T10:59:35.612Z,987.84
2018-07-20T11:00:35.776Z,987.84
2018-07-20T11:01:35.969Z,987.87
2018-07-20T11:02:36.105Z,987.84
2018-07-20T11:03:36.268Z,987.88
2018-07-20T11:04:36.431Z,987.86
2018-07-20T11:05:36.594Z,987.83
2018-07-20T11:06:36.759Z,987.84
2018-07-20T11:07:36.923Z,987.79
2018-07-20T11:08:37.089Z,987.83
2018-07-20T11:09:37.250Z,987.84
2018-07-20T11:10:37.415Z,987.82
2018-07-20T11:11:37.578Z,987.83
2018-07-20T11:12:37.738Z,987.80
2018-07-20T11:13:37.910Z,987.84
2018-07-20T11:14:38.066Z,987.82
2018-07-20T11:15:38.229Z,987.82
2018-07-20T11:16:38.393Z,987.85
2018-07-20T11:17:38.553Z,987.81
2018-07-20T11:18:38.715Z,987.83
2018-07-20T11:19:38.880Z,987.85
2018-07-20T11:20:39.045Z,987.82
2018-07-20T11:21:39.207Z,987.86
2018-07-20T11:22:39.371Z,987.79
2018-07-20T11:23:39.534Z,987.84
2018-07-20T11:24:39.698Z,987.80
2018-07-20T11:25:39.872Z,987.82
2018-07-20T11:26:40.028Z,987.77
2018-07-20T11:27:40.186Z,987.76
2018-07-20T11:28:40.349Z,987.76
2018-07-20T11:29:40.513Z,987.74
2018-07-20T11:30:40.676Z,987.75
2018-07-20T11:31:40.840Z,987.73
2018-07-20T11:32:41.004Z,987.75
2018-07-20T11:33:41.168Z,987.70
2018-07-20T11:34:41.388Z,987.72
2018-07-20T11:35:41.495Z,987.70
2018-07-20T11:36:41.662Z,987.65
2018-07-20T11:37:41.826Z,987.67
2018-07-20T11:38:41.992Z,987.66
2018-07-20T11:39:42.172Z,987.59
2018-07-20T11:40:42.335Z,987.59
2018-07-20T11:41:42.499Z,987.59
2018-07-20T11:42:42.663Z,987.59
2018-07-20T11:43:42.826Z,987.55
2018-07-20T11:44:42.992Z,987.54
2018-07-20T11:45:43.159Z,987.52
2018-07-20T11:46:43.321Z,987.53
2018-07-20T11:47:43.488Z,987.54
2018-07-20T11:48:43.650Z,987.55
2018-07-20T11:49:43.818Z,987.50
2018-07-20T11:50:43.982Z,987.49
2018-07-20T11:51:44.147Z,987.48
2018-07-20T11:52:44.313Z,987.49
2018-07-20T11:53:44.477Z,987.49
2018-07-20T11:54:44.644Z,987.47
2018-07-20T11:55:44.804Z,987.47
2018-07-20T11:56:44.973Z,987.45
2018-07-20T11:57:45.133Z,987.43
2018-07-20T11:58:45.300Z,987.46
2018-07-20T11:59:45.466Z,987.47
2018-07-20T12:00:45.628Z,987.52
2018-07-20T12:01:45.794Z,987.48
2018-07-20T12:02:45.957Z,987.46
2018-07-20T12:03:46.122Z,987.46
2018-07-20T12:04:46.285Z,987.48
2018-07-20T12:05:46.450Z,987.47
2018-07-20T12:06:46.656Z,987.45
2018-07-20T12:07:46.784Z,987.49
2018-07-20T12:08:46.939Z,987.44
2018-07-20T12:09:47.105Z,987.43
2018-07-20T12:10:47.270Z,987.42
2018-07-20T12:11:47.436Z,987.42
2018-07-20T12:12:47.600Z,987.42
2018-07-20T12:13:47.765Z,987.40
2018-07-20T12:14:47.928Z,987.41
2018-07-20T12:15:48.091Z,987.38
2018-07-20T12:16:48.257Z,987.38
2018-07-20T12:17:48.424Z,987.38
2018-07-20T12:18:48.596Z,987.37
2018-07-20T12:19:48.750Z,987.36
2018-07-20T12:20:48.913Z,987.36
2018-07-20T12:21:49.077Z,987.33
2018-07-20T12:22:49.240Z,987.33
2018-07-20T12:23:49.407Z,987.34
2018-07-20T12:24:49.571Z,987.31
2018-07-20T12:25:49.736Z,987.34
2018-07-20T12:26:49.899Z,987.34
2018-07-20T12:27:50.068Z,987.34
2018-07-20T12:28:50.229Z,987.29
2018-07-20T12:29:50.393Z,987.28
2018-07-20T12:30:50.557Z,987.28